Time;durP1;ratioP1;P1;durP2;ratioP2;P2;SDS_P1;SDS_P2;PMS_P1;PMS_P2;Temp;Humidity;BMP_temperature;BMP_pressure;BME280_temperature;BME280_humidity;BME280_pressure;Samples;Min_cycle;Max_cycle;Signal;HPM_P1;HPM_P2
2022/05/10 00:02:15;;;;;;;15.88;7.43;;;5.70;99.90;;;;;;5226864;28;20025;-75
2022/05/10 00:04:51;;;;;;;13.68;8.07;;;5.80;99.90;;;;;;5226897;28;20055;-69
2022/05/10 00:07:23;;;;;;;13.82;7.68;;;5.70;99.90;;;;;;5226833;28;20029;-72
2022/05/10 00:09:54;;;;;;;22.38;11.55;;;5.80;99.90;;;;;;5226925;28;20025;-75
2022/05/10 00:12:25;;;;;;;19.80;10.52;;;5.90;99.90;;;;;;5226805;28;20562;-75
2022/05/10 00:14:55;;;;;;;22.05;11.93;;;5.70;99.90;;;;;;5226840;28;20397;-70
2022/05/10 00:17:32;;;;;;;13.82;8.25;;;5.50;99.90;;;;;;5226681;28;20021;-74
2022/05/10 00:20:06;;;;;;;15.77;8.55;;;5.50;99.90;;;;;;5226959;28;20053;-74
2022/05/10 00:22:37;;;;;;;17.30;9.43;;;5.30;99.90;;;;;;5226779;28;20091;-69
2022/05/10 00:25:11;;;;;;;14.13;8.52;;;5.40;99.90;;;;;;5226893;28;20109;-67
2022/05/10 00:27:42;;;;;;;25.10;6.72;;;5.20;99.90;;;;;;5226596;28;20029;-75
2022/05/10 00:30:13;;;;;;;12.50;6.90;;;5.30;99.90;;;;;;5226611;28;20017;-74
2022/05/10 00:32:45;;;;;;;14.38;6.30;;;5.00;99.90;;;;;;5226660;28;20033;-68
2022/05/10 00:35:20;;;;;;;10.20;5.88;;;5.50;99.90;;;;;;5226542;28;20037;-74
2022/05/10 00:37:53;;;;;;;10.57;5.93;;;4.90;99.90;;;;;;5226617;28;20028;-68
2022/05/10 00:40:28;;;;;;;12.70;6.35;;;5.20;99.90;;;;;;5226522;28;20079;-74
2022/05/10 00:43:05;;;;;;;12.65;6.00;;;5.00;99.90;;;;;;5227609;28;20055;-73
2022/05/10 00:45:52;;;;;;;9.65;5.30;;;5.00;99.90;;;;;;5229337;28;20032;-74
2022/05/10 00:48:48;;;;;;;9.80;6.07;;;5.40;99.90;;;;;;5230492;28;20099;-75
2022/05/10 00:51:44;;;;;;;10.48;5.13;;;5.30;99.90;;;;;;5230524;28;20028;-73
2022/05/10 00:54:43;;;;;;;10.45;4.90;;;5.10;99.90;;;;;;5230353;28;20029;-74
2022/05/10 00:57:32;;;;;;;9.82;4.40;;;4.90;99.90;;;;;;5230330;28;20032;-74
2022/05/10 01:00:09;;;;;;;6.28;3.92;;;4.80;99.90;;;;;;5230184;28;20025;-74
2022/05/10 01:03:11;;;;;;;7.50;3.60;;;4.70;99.90;;;;;;5230313;28;20033;-74
2022/05/10 01:06:03;;;;;;;7.30;4.00;;;4.70;99.90;;;;;;5230253;28;20112;-68
2022/05/10 01:08:45;;;;;;;9.23;3.78;;;4.80;99.90;;;;;;5230128;28;20024;-74
2022/05/10 01:11:24;;;;;;;8.27;3.42;;;4.60;99.90;;;;;;5230169;28;20480;-69
2022/05/10 01:14:19;;;;;;;8.35;4.45;;;4.40;99.90;;;;;;5229970;28;20052;-74
2022/05/10 01:16:50;;;;;;;7.10;3.60;;;4.80;99.90;;;;;;5229867;28;20032;-68
2022/05/10 01:19:21;;;;;;;6.28;3.40;;;4.70;99.90;;;;;;5229937;28;20025;-74
2022/05/10 01:22:18;;;;;;;6.40;3.70;;;4.90;99.90;;;;;;5230041;28;20080;-74
2022/05/10 01:25:14;;;;;;;8.25;3.30;;;4.60;99.90;;;;;;5229881;28;20029;-68
2022/05/10 01:28:07;;;;;;;5.43;3.20;;;4.50;99.90;;;;;;5229678;28;20021;-68
2022/05/10 01:30:38;;;;;;;8.07;4.35;;;4.60;99.90;;;;;;5229779;28;20028;-68
2022/05/10 01:33:30;;;;;;;7.55;3.88;;;4.50;99.90;;;;;;5229482;28;20025;-74
2022/05/10 01:36:19;;;;;;;7.82;3.13;;;4.70;99.90;;;;;;5229692;28;20048;-71
2022/05/10 01:38:55;;;;;;;8.60;4.22;;;4.60;99.90;;;;;;5229541;28;20025;-75
2022/05/10 01:41:49;;;;;;;11.27;4.53;;;4.30;99.90;;;;;;5229247;28;20110;-69
2022/05/10 01:44:57;;;;;;;9.30;4.47;;;4.20;99.90;;;;;;5229550;28;20037;-75
2022/05/10 01:47:32;;;;;;;9.45;3.90;;;4.40;99.90;;;;;;5229423;28;20029;-68
2022/05/10 01:50:10;;;;;;;6.63;3.80;;;4.30;99.90;;;;;;5229359;28;20047;-75
2022/05/10 01:52:44;;;;;;;6.45;4.10;;;4.30;99.90;;;;;;5229395;28;20100;-74
2022/05/10 01:55:44;;;;;;;6.25;3.97;;;4.20;99.90;;;;;;5228210;28;20040;-74
2022/05/10 01:58:20;;;;;;;6.77;3.97;;;4.10;99.90;;;;;;5215815;28;20061;-75
2022/05/10 02:00:55;;;;;;;9.27;4.90;;;4.20;99.90;;;;;;5229260;28;20798;-68
2022/05/10 02:03:44;;;;;;;9.07;4.30;;;3.90;99.90;;;;;;5229060;28;20021;-67
2022/05/10 02:06:32;;;;;;;6.28;3.78;;;4.20;99.90;;;;;;5228936;28;20025;-74
2022/05/10 02:09:12;;;;;;;7.13;4.07;;;4.20;99.90;;;;;;5228978;28;20033;-72
2022/05/10 02:12:14;;;;;;;6.50;3.60;;;4.70;99.90;;;;;;5228902;28;20032;-75
2022/05/10 02:14:53;;;;;;;7.72;4.28;;;4.50;99.90;;;;;;5228820;28;20052;-74
2022/05/10 02:17:42;;;;;;;5.40;3.50;;;4.80;99.90;;;;;;5228882;28;20365;-75
2022/05/10 02:20:51;;;;;;;7.85;3.63;;;4.80;99.90;;;;;;5228935;28;20037;-74
2022/05/10 02:23:34;;;;;;;9.85;4.18;;;4.80;99.90;;;;;;5226812;28;20040;-74
2022/05/10 02:26:12;;;;;;;8.25;3.80;;;5.00;99.90;;;;;;5228705;28;20071;-74
2022/05/10 02:28:53;;;;;;;5.85;3.47;;;4.90;99.90;;;;;;5228444;28;20024;-74
2022/05/10 02:33:06;;;;;;;5.72;2.97;;;5.10;99.90;;;;;;5228634;28;20425;-74
2022/05/10 02:34:29;;;;;;;8.68;3.92;;;5.20;99.90;;;;;;5228483;28;20048;-74
2022/05/10 02:37:00;;;;;;;5.63;3.13;;;5.00;99.90;;;;;;5228314;28;20018;-75
2022/05/10 02:39:31;;;;;;;5.55;3.58;;;5.10;99.90;;;;;;5228392;28;20487;-68
2022/05/10 02:42:03;;;;;;;5.80;3.28;;;5.40;99.90;;;;;;5228090;28;20378;-74
2022/05/10 02:44:34;;;;;;;7.80;3.58;;;5.20;99.90;;;;;;5228258;28;20100;-74
2022/05/10 02:47:07;;;;;;;6.38;3.72;;;5.00;99.90;;;;;;5228140;28;20091;-74
2022/05/10 02:49:39;;;;;;;7.43;3.40;;;5.10;99.90;;;;;;5228168;28;20047;-67
2022/05/10 02:52:10;;;;;;;9.75;4.18;;;5.10;99.90;;;;;;5228020;28;20028;-74
2022/05/10 02:54:41;;;;;;;9.93;3.42;;;4.90;99.90;;;;;;5227987;28;20056;-75
2022/05/10 02:57:12;;;;;;;7.63;3.22;;;4.80;99.90;;;;;;5226738;28;20056;-74
2022/05/10 02:59:43;;;;;;;7.63;3.55;;;4.90;99.90;;;;;;5227939;28;20033;-75
2022/05/10 03:02:31;;;;;;;7.82;3.20;;;4.90;99.90;;;;;;5228015;28;20021;-75
2022/05/10 03:05:04;;;;;;;8.35;3.50;;;4.40;99.90;;;;;;5227975;28;20097;-75
2022/05/10 03:07:35;;;;;;;8.05;3.85;;;4.60;99.90;;;;;;5227803;28;20029;-75
2022/05/10 03:10:07;;;;;;;6.07;3.45;;;4.70;99.90;;;;;;5227990;28;20032;-68
2022/05/10 03:12:38;;;;;;;10.82;3.13;;;4.70;99.90;;;;;;5227610;28;20170;-69
2022/05/10 03:15:09;;;;;;;7.50;3.25;;;4.50;99.90;;;;;;5227556;28;20488;-69
2022/05/10 03:17:40;;;;;;;6.38;3.25;;;4.50;99.90;;;;;;5227556;28;20035;-74
2022/05/10 03:20:11;;;;;;;6.25;4.10;;;4.50;99.90;;;;;;5227609;28;20107;-75
2022/05/10 03:22:42;;;;;;;5.07;3.00;;;4.40;99.90;;;;;;5227403;28;20082;-75
2022/05/10 03:25:13;;;;;;;6.70;3.78;;;4.40;99.90;;;;;;5227474;28;20345;-75
2022/05/10 03:27:45;;;;;;;8.30;3.47;;;4.70;99.90;;;;;;5227467;28;20036;-69
2022/05/10 03:30:17;;;;;;;6.15;3.40;;;4.60;99.90;;;;;;5227347;28;20060;-74
2022/05/10 03:32:48;;;;;;;6.32;3.05;;;4.60;99.90;;;;;;5227844;28;20017;-75
2022/05/10 03:35:19;;;;;;;7.70;3.60;;;4.80;99.90;;;;;;5227321;28;20044;-68
2022/05/10 03:37:51;;;;;;;7.25;3.63;;;4.50;99.90;;;;;;5227141;28;20028;-75
2022/05/10 03:40:21;;;;;;;6.22;3.47;;;4.70;99.90;;;;;;5227270;28;20032;-75
2022/05/10 03:42:53;;;;;;;8.80;3.50;;;4.90;99.90;;;;;;5227064;28;20053;-68
2022/05/10 03:45:24;;;;;;;6.60;3.53;;;4.90;99.90;;;;;;5227027;28;20040;-75
2022/05/10 03:47:57;;;;;;;5.80;3.10;;;5.10;99.90;;;;;;5227652;28;20056;-68
2022/05/10 03:50:28;;;;;;;6.57;3.08;;;5.00;99.90;;;;;;5227245;28;20423;-68
2022/05/10 03:52:59;;;;;;;11.32;3.60;;;5.10;99.90;;;;;;5226801;28;20036;-76
2022/05/10 03:55:30;;;;;;;5.95;3.30;;;5.20;99.90;;;;;;5226327;28;20037;-74
2022/05/10 03:58:03;;;;;;;6.78;3.25;;;5.10;99.90;;;;;;5226398;28;20078;-75
2022/05/10 04:00:34;;;;;;;6.85;3.60;;;5.10;99.90;;;;;;5226645;28;20017;-76
2022/05/10 04:03:05;;;;;;;6.28;3.65;;;5.40;99.90;;;;;;5226460;28;20036;-75
2022/05/10 04:05:36;;;;;;;14.45;3.60;;;5.20;99.90;;;;;;5226302;28;20445;-73
2022/05/10 04:08:07;;;;;;;5.90;3.45;;;5.30;99.90;;;;;;5226621;28;20017;-68
2022/05/10 04:10:38;;;;;;;8.57;3.90;;;5.50;99.90;;;;;;5226211;28;20099;-75
2022/05/10 04:13:10;;;;;;;9.18;4.35;;;5.60;99.90;;;;;;5227158;28;20021;-69
2022/05/10 04:15:41;;;;;;;7.30;3.83;;;5.60;99.90;;;;;;5227296;28;20090;-67
2022/05/10 04:18:12;;;;;;;6.75;4.38;;;5.90;99.90;;;;;;5228555;28;20025;-75
2022/05/10 04:20:42;;;;;;;8.25;4.95;;;6.10;99.90;;;;;;5231345;28;20119;-74
2022/05/10 04:23:13;;;;;;;8.63;4.40;;;6.00;99.90;;;;;;5231369;28;20021;-69
2022/05/10 04:25:44;;;;;;;13.45;5.47;;;6.00;99.90;;;;;;5231424;28;20032;-68
2022/05/10 04:28:15;;;;;;;10.88;6.18;;;6.10;99.90;;;;;;5231332;28;20021;-70
2022/05/10 04:30:46;;;;;;;13.73;5.95;;;6.20;99.90;;;;;;5231360;28;20341;-67
2022/05/10 04:33:17;;;;;;;9.45;5.78;;;6.30;99.90;;;;;;5231276;28;20028;-67
2022/05/10 04:35:47;;;;;;;11.57;5.13;;;6.70;99.90;;;;;;5231438;28;20036;-67
2022/05/10 04:38:18;;;;;;;9.10;5.03;;;6.90;99.90;;;;;;5231132;28;20368;-70
2022/05/10 04:43:41;;;;;;;12.00;5.40;;;7.00;99.90;;;;;;5224837;28;20061;-77
2022/05/10 04:46:12;;;;;;;8.73;5.00;;;7.20;99.90;;;;;;5209935;28;20384;-77
2022/05/10 04:48:44;;;;;;;9.35;5.63;;;7.40;99.90;;;;;;5209887;28;20480;-76
2022/05/10 04:51:14;;;;;;;9.82;5.25;;;7.40;99.90;;;;;;5210065;28;20373;-69
2022/05/10 04:53:45;;;;;;;10.80;5.80;;;7.50;99.90;;;;;;5209729;28;20022;-77
2022/05/10 04:56:16;;;;;;;10.25;6.18;;;7.90;99.90;;;;;;5209507;28;20038;-77
2022/05/10 04:58:48;;;;;;;9.07;5.57;;;8.10;99.90;;;;;;5213544;28;20074;-70
2022/05/10 05:01:19;;;;;;;9.85;5.82;;;7.90;99.90;;;;;;5230205;28;20037;-76
2022/05/10 05:03:50;;;;;;;10.68;5.78;;;8.10;99.90;;;;;;5230156;28;20025;-77
2022/05/10 05:06:21;;;;;;;10.55;5.68;;;8.10;99.90;;;;;;5230608;28;20025;-69
2022/05/10 05:08:53;;;;;;;13.98;6.10;;;8.60;99.90;;;;;;5230498;28;20021;-69
2022/05/10 05:11:24;;;;;;;12.63;6.10;;;8.80;99.90;;;;;;5230672;28;20025;-69
2022/05/10 05:13:54;;;;;;;8.15;5.40;;;8.90;99.90;;;;;;5230443;28;20029;-69
2022/05/10 05:16:25;;;;;;;8.93;5.30;;;9.20;99.90;;;;;;5230386;28;20499;-69
2022/05/10 05:18:56;;;;;;;10.07;5.05;;;9.70;99.90;;;;;;5230479;28;20448;-69
2022/05/10 05:21:27;;;;;;;8.00;4.78;;;9.90;99.90;;;;;;5230373;28;20021;-75
2022/05/10 05:23:58;;;;;;;8.77;5.13;;;10.20;99.90;;;;;;5230264;28;20058;-69
2022/05/10 05:26:29;;;;;;;14.82;4.85;;;10.60;99.90;;;;;;5230293;28;20028;-69
2022/05/10 05:29:00;;;;;;;13.35;5.70;;;11.00;99.90;;;;;;5229438;28;20032;-69
2022/05/10 05:31:31;;;;;;;9.88;5.25;;;11.50;99.90;;;;;;5229810;28;20020;-69
2022/05/10 05:34:02;;;;;;;12.25;5.75;;;12.00;99.90;;;;;;5230011;28;20045;-73
2022/05/10 05:36:33;;;;;;;16.17;6.47;;;12.50;99.90;;;;;;5229961;28;20027;-71
2022/05/10 05:39:04;;;;;;;9.63;5.28;;;12.80;99.90;;;;;;5229992;28;20017;-70
2022/05/10 05:41:35;;;;;;;12.20;5.63;;;12.80;99.90;;;;;;5229662;28;20060;-77
2022/05/10 05:44:05;;;;;;;12.20;5.53;;;13.10;99.90;;;;;;5229962;28;20052;-69
2022/05/10 05:46:36;;;;;;;8.15;4.85;;;13.40;99.90;;;;;;5229758;28;20442;-68
2022/05/10 05:49:07;;;;;;;5.45;2.88;;;13.60;99.90;;;;;;5229808;28;20033;-69
2022/05/10 05:51:38;;;;;;;9.00;2.22;;;13.80;99.90;;;;;;5229927;28;20118;-69
2022/05/10 05:54:10;;;;;;;5.22;1.92;;;13.60;99.90;;;;;;5229525;28;20094;-69
2022/05/10 05:56:41;;;;;;;5.97;1.83;;;13.20;99.90;;;;;;5229494;28;20031;-68
2022/05/10 05:59:11;;;;;;;2.67;2.03;;;13.30;99.90;;;;;;5229605;28;20520;-69
2022/05/10 06:01:42;;;;;;;5.07;2.58;;;13.40;99.90;;;;;;5229503;28;20029;-69
2022/05/10 06:04:13;;;;;;;5.57;1.58;;;13.40;99.90;;;;;;5229535;28;20155;-69
2022/05/10 06:06:44;;;;;;;4.50;1.90;;;13.70;99.90;;;;;;5229523;28;20493;-69
2022/05/10 06:09:15;;;;;;;4.72;1.95;;;14.00;99.90;;;;;;5229485;28;20024;-70
2022/05/10 06:11:46;;;;;;;5.07;1.75;;;13.70;99.90;;;;;;5229205;28;20049;-69
2022/05/10 06:14:17;;;;;;;3.88;2.25;;;14.30;99.90;;;;;;5229464;28;20045;-69
2022/05/10 06:16:48;;;;;;;4.75;1.90;;;14.40;99.90;;;;;;5228136;28;20021;-69
2022/05/10 06:19:20;;;;;;;3.75;1.60;;;13.90;99.90;;;;;;5229129;28;20364;-68
2022/05/10 06:21:51;;;;;;;16.35;2.10;;;14.30;99.90;;;;;;5229410;28;20035;-69
2022/05/10 06:24:23;;;;;;;7.28;1.75;;;14.70;99.90;;;;;;5229140;28;20372;-69
2022/05/10 06:26:54;;;;;;;4.65;1.70;;;14.70;99.90;;;;;;5229161;28;20033;-68
2022/05/10 06:29:25;;;;;;;3.80;1.88;;;14.50;99.90;;;;;;5228921;28;20108;-75
2022/05/10 06:31:56;;;;;;;6.82;1.90;;;14.70;99.90;;;;;;5228938;28;20104;-72
2022/05/10 06:34:27;;;;;;;4.22;1.27;;;14.40;99.90;;;;;;5228849;28;20442;-76
2022/05/10 06:36:58;;;;;;;5.05;1.50;;;14.80;99.90;;;;;;5229049;28;20099;-69
2022/05/10 06:39:29;;;;;;;5.47;1.83;;;14.50;99.90;;;;;;5228803;28;20036;-69
2022/05/10 06:41:59;;;;;;;4.10;1.75;;;15.00;99.90;;;;;;5228240;28;20472;-77
2022/05/10 06:44:30;;;;;;;5.50;1.63;;;15.00;99.90;;;;;;5228654;28;20361;-69
2022/05/10 06:47:01;;;;;;;5.40;1.77;;;15.50;99.90;;;;;;5226581;28;20376;-76
2022/05/10 06:49:32;;;;;;;4.50;1.38;;;15.60;99.90;;;;;;5227588;28;20029;-75
2022/05/10 06:52:03;;;;;;;3.40;1.52;;;15.70;99.90;;;;;;5228450;28;20100;-76
2022/05/10 06:54:34;;;;;;;3.53;1.30;;;15.70;99.90;;;;;;5228621;28;20480;-76
2022/05/10 06:57:05;;;;;;;4.97;1.70;;;16.00;99.90;;;;;;5228474;28;20067;-69
2022/05/10 06:59:35;;;;;;;2.95;1.33;;;15.80;99.90;;;;;;5228218;28;20384;-79
2022/05/10 07:02:06;;;;;;;6.43;2.15;;;15.80;99.90;;;;;;5226832;28;20025;-77
2022/05/10 07:04:37;;;;;;;3.35;1.45;;;16.10;99.90;;;;;;5228402;28;20585;-75
2022/05/10 07:07:08;;;;;;;4.70;1.45;;;16.20;99.90;;;;;;5228393;28;20032;-69
2022/05/10 07:09:38;;;;;;;2.25;1.17;;;16.10;99.90;;;;;;5228118;28;20147;-69
2022/05/10 07:12:10;;;;;;;5.63;1.48;;;16.20;99.90;;;;;;5228156;28;20029;-70
2022/05/10 07:14:43;;;;;;;7.07;1.40;;;16.20;99.90;;;;;;5228228;28;20041;-69
2022/05/10 07:17:14;;;;;;;5.70;1.27;;;16.50;99.90;;;;;;5227968;28;20057;-68
2022/05/10 07:19:45;;;;;;;4.13;1.35;;;16.00;99.90;;;;;;5228273;28;20056;-69
2022/05/10 07:22:16;;;;;;;4.65;1.20;;;16.30;99.90;;;;;;5228059;28;20053;-69
2022/05/10 07:24:47;;;;;;;5.10;1.67;;;16.30;99.90;;;;;;5227918;28;20048;-69
2022/05/10 07:27:18;;;;;;;2.22;1.20;;;16.40;99.90;;;;;;5227154;28;20499;-69
2022/05/10 07:29:48;;;;;;;3.72;1.17;;;16.70;99.90;;;;;;5227855;28;20079;-68
2022/05/10 07:32:20;;;;;;;3.53;1.30;;;16.50;99.90;;;;;;5226886;28;20033;-68
2022/05/10 07:34:51;;;;;;;4.30;1.58;;;16.50;99.90;;;;;;5226837;28;20083;-68
2022/05/10 07:37:22;;;;;;;3.90;1.63;;;16.70;99.90;;;;;;5227797;28;20358;-69
2022/05/10 07:39:53;;;;;;;4.25;2.05;;;16.80;99.90;;;;;;5227741;28;20052;-69
2022/05/10 07:42:23;;;;;;;6.78;1.48;;;17.10;99.90;;;;;;5227342;28;20080;-76
2022/05/10 07:44:55;;;;;;;2.72;1.33;;;17.10;99.90;;;;;;5227815;28;20029;-68
2022/05/10 07:47:25;;;;;;;8.65;2.00;;;16.70;99.90;;;;;;5227630;28;20029;-76
2022/05/10 07:49:56;;;;;;;2.85;1.60;;;16.70;99.90;;;;;;5226903;28;20086;-73
2022/05/10 07:52:27;;;;;;;4.97;1.55;;;16.70;99.90;;;;;;5224740;28;20021;-76
2022/05/10 07:55:00;;;;;;;5.07;1.08;;;16.50;99.90;;;;;;5225431;28;20044;-73
2022/05/10 07:57:30;;;;;;;4.47;1.25;;;16.90;99.90;;;;;;5225755;28;20108;-67
2022/05/10 08:00:01;;;;;;;7.03;1.48;;;16.70;99.90;;;;;;5227439;28;20500;-71
2022/05/10 08:02:32;;;;;;;3.05;1.17;;;16.90;99.90;;;;;;5227389;28;20464;-71
2022/05/10 08:05:03;;;;;;;6.45;1.35;;;17.30;99.90;;;;;;5227359;28;20460;-67
2022/05/10 08:07:34;;;;;;;4.15;1.02;;;17.20;99.90;;;;;;5227488;28;20040;-68
2022/05/10 08:10:05;;;;;;;1.23;1.00;;;17.10;99.90;;;;;;5227384;28;20025;-76
2022/05/10 08:12:36;;;;;;;5.95;1.58;;;17.40;99.90;;;;;;5227319;28;20029;-69
2022/05/10 08:15:08;;;;;;;1.70;1.00;;;17.40;99.90;;;;;;5227374;28;20094;-78
2022/05/10 08:17:40;;;;;;;2.63;0.88;;;17.10;99.90;;;;;;5227236;28;20028;-69
2022/05/10 08:20:11;;;;;;;3.88;1.13;;;17.20;99.90;;;;;;5227300;28;20032;-69
2022/05/10 08:22:41;;;;;;;4.60;1.38;;;17.40;99.90;;;;;;5227264;28;20032;-69
2022/05/10 08:25:13;;;;;;;6.63;1.40;;;17.20;99.90;;;;;;5227133;28;20041;-69
2022/05/10 08:27:44;;;;;;;4.15;1.20;;;17.40;99.90;;;;;;5227164;28;20394;-68
2022/05/10 08:30:15;;;;;;;3.20;1.20;;;17.50;99.90;;;;;;5225726;28;20163;-69
2022/05/10 08:32:46;;;;;;;4.60;1.05;;;17.30;99.90;;;;;;5225595;28;20092;-68
2022/05/10 08:35:17;;;;;;;2.30;1.13;;;17.80;99.90;;;;;;5226796;28;20510;-68
2022/05/10 08:37:48;;;;;;;4.57;1.33;;;17.20;99.90;;;;;;5226742;28;20456;-67
2022/05/10 08:40:32;;;;;;;3.22;1.48;;;17.40;99.90;;;;;;5226243;28;20123;-72
2022/05/10 08:43:09;;;;;;;5.93;1.70;;;17.50;99.90;;;;;;5226964;28;20052;-67
2022/05/10 08:45:43;;;;;;;1.92;1.20;;;17.90;99.90;;;;;;5227231;28;20407;-67
2022/05/10 08:48:16;;;;;;;4.32;1.40;;;18.10;99.90;;;;;;5226964;28;20029;-74
2022/05/10 08:50:48;;;;;;;4.22;1.33;;;18.10;99.90;;;;;;5226912;28;20025;-67
2022/05/10 08:53:19;;;;;;;6.35;1.25;;;18.30;99.90;;;;;;5227090;28;20033;-67
2022/05/10 08:56:04;;;;;;;4.20;1.00;;;18.30;99.90;;;;;;5226960;28;20037;-76
2022/05/10 08:58:52;;;;;;;3.92;1.42;;;18.20;99.90;;;;;;5226985;28;20025;-79
2022/05/10 09:01:28;;;;;;;5.88;1.73;;;18.70;99.90;;;;;;5227065;28;20025;-74
2022/05/10 09:04:36;;;;;;;2.05;0.98;;;17.50;99.90;;;;;;5228053;28;20048;-74
2022/05/10 09:07:25;;;;;;;3.80;0.98;;;18.30;99.90;;;;;;5230635;28;20029;-69
2022/05/10 09:10:02;;;;;;;6.20;1.30;;;18.10;99.90;;;;;;5230473;28;20538;-68
2022/05/10 09:12:52;;;;;;;2.25;1.00;;;18.20;99.90;;;;;;5226848;28;20112;-76
2022/05/10 09:15:23;;;;;;;5.45;1.25;;;18.10;99.90;;;;;;5229337;28;20041;-68
2022/05/10 09:17:54;;;;;;;1.60;1.00;;;18.30;99.90;;;;;;5230093;28;20043;-76
2022/05/10 09:20:24;;;;;;;4.68;1.20;;;17.90;99.90;;;;;;5230221;28;20021;-74
2022/05/10 09:22:58;;;;;;;1.77;0.98;;;18.70;99.90;;;;;;5230119;28;20017;-67
2022/05/10 09:25:37;;;;;;;3.42;1.30;;;18.70;99.90;;;;;;5230059;28;20017;-68
2022/05/10 09:28:33;;;;;;;2.20;0.93;;;18.50;99.90;;;;;;5229870;28;20104;-68
2022/05/10 09:34:46;;;;;;;2.58;1.10;;;18.30;99.90;;;;;;5207088;28;20040;-68
2022/05/10 09:37:20;;;;;;;3.08;1.13;;;18.50;99.90;;;;;;5226560;28;20461;-68
2022/05/10 09:39:56;;;;;;;3.20;1.27;;;18.30;99.90;;;;;;5228710;28;20029;-68
2022/05/10 09:42:31;;;;;;;4.80;1.00;;;18.90;99.90;;;;;;5228858;28;20059;-68
2022/05/10 09:45:20;;;;;;;5.32;1.25;;;18.70;99.90;;;;;;5229632;28;20473;-68
2022/05/10 09:47:58;;;;;;;3.10;0.90;;;18.00;99.90;;;;;;5229698;28;20055;-68
2022/05/10 09:50:35;;;;;;;1.70;0.98;;;19.00;99.90;;;;;;5229585;28;20032;-74
2022/05/10 09:53:11;;;;;;;3.78;1.20;;;18.70;99.90;;;;;;5228333;28;20029;-68
2022/05/10 09:55:57;;;;;;;2.65;1.05;;;19.00;99.90;;;;;;5228334;28;20519;-68
2022/05/10 09:58:31;;;;;;;4.05;1.02;;;18.80;99.90;;;;;;5217990;28;20025;-74
2022/05/10 10:01:07;;;;;;;2.83;1.00;;;18.30;99.90;;;;;;5207628;28;20092;-68
2022/05/10 10:03:40;;;;;;;5.13;1.20;;;19.00;99.90;;;;;;5207640;28;20060;-68
2022/05/10 10:06:16;;;;;;;4.10;1.20;;;18.70;99.90;;;;;;5216098;28;20022;-68
2022/05/10 10:08:55;;;;;;;2.83;1.30;;;19.20;99.90;;;;;;5228709;28;20068;-67
2022/05/10 10:11:29;;;;;;;2.35;0.90;;;19.10;99.90;;;;;;5229262;28;20052;-68
2022/05/10 10:14:07;;;;;;;3.50;0.82;;;19.00;99.90;;;;;;5229001;28;20037;-74
2022/05/10 10:16:48;;;;;;;11.13;1.17;;;18.90;99.90;;;;;;5228673;28;20033;-67
2022/05/10 10:19:19;;;;;;;4.40;1.17;;;18.80;99.90;;;;;;5228015;28;20017;-72
2022/05/10 10:22:03;;;;;;;4.45;1.50;;;19.20;99.90;;;;;;5227255;28;20480;-75
2022/05/10 10:25:02;;;;;;;3.83;1.00;;;18.90;99.90;;;;;;5226116;28;20013;-75
2022/05/10 10:27:44;;;;;;;3.28;1.00;;;19.10;99.90;;;;;;5225952;28;20143;-72
2022/05/10 10:30:27;;;;;;;2.80;1.10;;;19.10;99.90;;;;;;5227126;28;20031;-76
2022/05/10 10:33:24;;;;;;;5.45;1.33;;;19.20;99.90;;;;;;5227036;28;20530;-68
2022/05/10 10:36:17;;;;;;;2.33;1.10;;;18.80;99.90;;;;;;5225909;28;20362;-70
2022/05/10 10:39:02;;;;;;;3.45;1.35;;;18.70;99.90;;;;;;5225155;28;20090;-68
2022/05/10 10:41:48;;;;;;;2.67;1.20;;;19.10;99.90;;;;;;5224972;28;20124;-68
2022/05/10 10:44:29;;;;;;;3.83;1.60;;;19.60;99.90;;;;;;5226763;28;20087;-69
2022/05/10 10:47:38;;;;;;;3.90;1.48;;;19.20;99.90;;;;;;5226401;28;20071;-68
2022/05/10 10:50:28;;;;;;;5.60;1.35;;;19.80;99.90;;;;;;5225729;28;20091;-69
2022/05/10 10:53:02;;;;;;;4.27;1.50;;;19.20;99.90;;;;;;5226399;28;20078;-68
2022/05/10 10:56:05;;;;;;;5.43;2.10;;;19.20;99.90;;;;;;5226022;28;20967;-69
2022/05/10 10:58:37;;;;;;;4.32;1.13;;;19.80;99.90;;;;;;5225534;28;20021;-77
2022/05/10 11:01:40;;;;;;;4.45;1.10;;;18.80;99.90;;;;;;5226638;28;20380;-68
2022/05/10 11:04:16;;;;;;;4.80;1.35;;;18.80;99.90;;;;;;5225204;28;20025;-68
2022/05/10 11:06:52;;;;;;;6.18;1.35;;;19.60;99.90;;;;;;5224436;28;20056;-68
2022/05/10 11:09:48;;;;;;;5.05;1.20;;;18.90;99.90;;;;;;5223801;28;20013;-67
2022/05/10 11:12:52;;;;;;;5.60;1.30;;;19.40;99.90;;;;;;5225682;28;20036;-69
2022/05/10 11:15:31;;;;;;;3.97;1.27;;;19.30;99.90;;;;;;5227440;28;20041;-67
2022/05/10 11:18:15;;;;;;;5.50;1.90;;;19.40;99.90;;;;;;5227990;28;20079;-67
2022/05/10 11:21:03;;;;;;;3.70;1.17;;;20.00;99.90;;;;;;5228165;28;20053;-67
2022/05/10 11:23:43;;;;;;;5.55;1.23;;;18.90;99.90;;;;;;5228017;28;20377;-74
2022/05/10 11:26:40;;;;;;;1.80;1.05;;;19.00;99.90;;;;;;5228037;28;20105;-67
2022/05/10 11:29:32;;;;;;;2.25;0.80;;;19.60;99.90;;;;;;5227294;28;20113;-67
2022/05/10 11:32:08;;;;;;;2.63;1.10;;;19.70;99.90;;;;;;5228027;28;20102;-67
2022/05/10 11:34:46;;;;;;;3.88;1.33;;;19.60;99.90;;;;;;5227213;28;20075;-77
2022/05/10 11:37:25;;;;;;;1.48;0.90;;;19.10;99.90;;;;;;5227436;28;20040;-68
2022/05/10 11:40:28;;;;;;;3.08;1.10;;;19.30;99.90;;;;;;5227646;28;20018;-76
2022/05/10 11:43:18;;;;;;;3.22;1.20;;;19.10;99.90;;;;;;5227364;28;20098;-70
2022/05/10 11:45:59;;;;;;;1.55;0.80;;;18.90;99.90;;;;;;5227894;28;20436;-67
2022/05/10 11:49:03;;;;;;;2.78;1.05;;;18.60;99.90;;;;;;5227712;28;20103;-77
2022/05/10 11:51:57;;;;;;;5.10;1.45;;;18.80;99.90;;;;;;5227854;28;20419;-67
2022/05/10 11:55:02;;;;;;;2.55;1.00;;;19.20;99.90;;;;;;5227552;28;20033;-67
2022/05/10 11:57:34;;;;;;;2.45;0.80;;;19.30;99.90;;;;;;5227476;28;20029;-77
2022/05/10 12:00:26;;;;;;;4.13;0.77;;;19.40;99.90;;;;;;5227512;28;20031;-67
2022/05/10 12:03:13;;;;;;;2.53;1.08;;;18.50;99.90;;;;;;5227288;28;20067;-68
2022/05/10 12:05:44;;;;;;;4.07;0.80;;;18.70;99.90;;;;;;5226900;28;20083;-76
2022/05/10 12:08:20;;;;;;;2.45;0.90;;;18.50;99.90;;;;;;5227397;28;20029;-67
2022/05/10 12:10:51;;;;;;;2.72;0.85;;;18.80;99.90;;;;;;5227366;28;20029;-67
2022/05/10 12:22:47;;;;;;;5.72;1.10;;;19.20;99.90;;;;;;5227603;28;20448;-75
2022/05/10 12:25:44;;;;;;;5.45;1.48;;;18.90;99.90;;;;;;5227313;28;20361;-67
2022/05/10 12:28:51;;;;;;;5.45;1.10;;;19.60;99.90;;;;;;5227163;28;20079;-67
2022/05/10 12:31:30;;;;;;;5.03;0.80;;;19.50;99.90;;;;;;5163796;28;20035;-67
2022/05/10 12:34:01;;;;;;;3.25;1.30;;;19.30;99.90;;;;;;5220706;28;20063;-68
2022/05/10 12:36:35;;;;;;;3.42;1.10;;;18.90;99.90;;;;;;5227068;28;20033;-67
2022/05/10 12:39:32;;;;;;;2.78;0.98;;;18.70;99.90;;;;;;5228417;28;20511;-67
2022/05/10 12:42:13;;;;;;;3.30;1.13;;;19.40;99.90;;;;;;5227910;28;20041;-67
2022/05/10 12:45:09;;;;;;;3.08;1.00;;;18.60;99.90;;;;;;5230134;28;20462;-67
2022/05/10 12:47:55;;;;;;;1.65;0.90;;;18.70;99.90;;;;;;5230512;28;20413;-67
2022/05/10 12:50:35;;;;;;;2.95;0.95;;;19.10;99.90;;;;;;5230675;28;20021;-67
2022/05/10 12:53:37;;;;;;;3.10;0.93;;;19.50;99.90;;;;;;5230873;28;20025;-67
2022/05/10 12:56:30;;;;;;;4.20;1.10;;;19.00;99.90;;;;;;5199775;28;20547;-77
2022/05/10 12:59:19;;;;;;;2.10;1.05;;;19.20;99.90;;;;;;5230876;28;20534;-67
2022/05/10 13:01:54;;;;;;;2.75;0.95;;;19.50;99.90;;;;;;5231070;28;20025;-76
2022/05/10 13:04:32;;;;;;;3.70;0.80;;;19.40;99.90;;;;;;5230969;28;20025;-67
2022/05/10 13:07:11;;;;;;;2.17;1.00;;;18.90;99.90;;;;;;5230783;28;20400;-67
2022/05/10 13:09:49;;;;;;;2.28;1.05;;;19.00;99.90;;;;;;5230709;28;20033;-68
2022/05/10 13:12:22;;;;;;;3.53;1.30;;;19.30;99.90;;;;;;5230761;28;20104;-67
2022/05/10 13:15:10;;;;;;;4.30;1.02;;;18.90;99.90;;;;;;5230343;28;20102;-68
2022/05/10 13:17:51;;;;;;;5.05;1.00;;;18.80;99.90;;;;;;5230391;28;20532;-67
2022/05/10 13:20:28;;;;;;;3.63;1.10;;;19.20;99.90;;;;;;5230496;28;20025;-67
2022/05/10 13:23:04;;;;;;;6.32;1.30;;;19.70;99.90;;;;;;5230457;28;20063;-68
2022/05/10 13:25:42;;;;;;;3.83;1.00;;;19.50;99.90;;;;;;5230418;28;20028;-67
2022/05/10 13:28:18;;;;;;;1.75;0.80;;;18.90;99.90;;;;;;5230336;28;20032;-76
2022/05/10 13:30:55;;;;;;;2.92;1.00;;;19.50;99.90;;;;;;5230262;28;20580;-67
2022/05/10 13:33:28;;;;;;;2.80;0.80;;;19.00;99.90;;;;;;5230129;28;20104;-67
2022/05/10 13:36:05;;;;;;;2.88;0.80;;;19.20;99.90;;;;;;5230092;28;20041;-67
2022/05/10 13:38:46;;;;;;;4.57;1.17;;;19.40;99.90;;;;;;5230275;28;20114;-67
2022/05/10 13:41:30;;;;;;;2.67;1.20;;;19.50;99.90;;;;;;5229764;28;20381;-67
2022/05/10 13:44:31;;;;;;;2.28;1.00;;;19.40;99.90;;;;;;5229867;28;20060;-68
2022/05/10 13:47:04;;;;;;;6.45;1.75;;;19.80;99.90;;;;;;5226938;28;20094;-70
2022/05/10 13:49:39;;;;;;;5.53;1.50;;;19.70;99.90;;;;;;5229795;28;20021;-68
2022/05/10 13:52:27;;;;;;;6.10;1.20;;;19.10;99.90;;;;;;5228968;28;20107;-67
2022/05/10 13:55:04;;;;;;;3.05;0.73;;;19.20;99.90;;;;;;5229632;28;20037;-67
2022/05/10 13:57:36;;;;;;;3.38;0.60;;;19.10;99.90;;;;;;5229808;28;20025;-67
2022/05/10 14:00:32;;;;;;;1.80;1.00;;;19.10;99.90;;;;;;5229692;28;20085;-68